sensor_id;sensor_type;location;lat;lon;timestamp;P1;durP1;ratioP1;P2;durP2;ratioP2
12966;SDS011;6548;49.996;8.238;2022-09-09T00:00:47;4.05;;;1.42;;
12966;SDS011;6548;49.996;8.238;2022-09-09T00:03:21;5.05;;;1.42;;
12966;SDS011;6548;49.996;8.238;2022-09-09T00:14:23;4.55;;;1.88;;
12966;SDS011;6548;49.996;8.238;2022-09-09T00:17:01;2.25;;;0.98;;
12966;SDS011;6548;49.996;8.238;2022-09-09T00:20:18;3.47;;;1.10;;
12966;SDS011;6548;49.996;8.238;2022-09-09T00:22:23;2.80;;;1.10;;
12966;SDS011;6548;49.996;8.238;2022-09-09T00:24:52;4.68;;;1.90;;
12966;SDS011;6548;49.996;8.238;2022-09-09T00:27:29;1.40;;;1.30;;
12966;SDS011;6548;49.996;8.238;2022-09-09T00:30:12;2.65;;;1.50;;
12966;SDS011;6548;49.996;8.238;2022-09-09T00:32:47;2.97;;;1.42;;
12966;SDS011;6548;49.996;8.238;2022-09-09T00:35:16;4.97;;;1.50;;
12966;SDS011;6548;49.996;8.238;2022-09-09T00:37:43;2.10;;;1.40;;
12966;SDS011;6548;49.996;8.238;2022-09-09T00:40:22;1.90;;;1.10;;
12966;SDS011;6548;49.996;8.238;2022-09-09T00:43:09;2.60;;;1.33;;
12966;SDS011;6548;49.996;8.238;2022-09-09T00:48:12;3.67;;;1.75;;
12966;SDS011;6548;49.996;8.238;2022-09-09T00:50:50;2.03;;;1.30;;
12966;SDS011;6548;49.996;8.238;2022-09-09T00:56:18;2.83;;;1.77;;
12966;SDS011;6548;49.996;8.238;2022-09-09T00:59:32;5.60;;;1.40;;
12966;SDS011;6548;49.996;8.238;2022-09-09T01:01:37;3.05;;;1.40;;
12966;SDS011;6548;49.996;8.238;2022-09-09T01:04:05;2.13;;;1.10;;
12966;SDS011;6548;49.996;8.238;2022-09-09T01:06:41;3.70;;;1.27;;
12966;SDS011;6548;49.996;8.238;2022-09-09T01:11:51;1.48;;;1.10;;
12966;SDS011;6548;49.996;8.238;2022-09-09T01:14:38;2.70;;;1.40;;
12966;SDS011;6548;49.996;8.238;2022-09-09T01:17:15;2.28;;;1.10;;
12966;SDS011;6548;49.996;8.238;2022-09-09T01:25:18;3.70;;;1.20;;
12966;SDS011;6548;49.996;8.238;2022-09-09T01:28:09;3.30;;;1.08;;
12966;SDS011;6548;49.996;8.238;2022-09-09T01:30:39;1.98;;;1.00;;
12966;SDS011;6548;49.996;8.238;2022-09-09T01:33:07;5.05;;;1.15;;
12966;SDS011;6548;49.996;8.238;2022-09-09T01:35:55;1.08;;;0.93;;
12966;SDS011;6548;49.996;8.238;2022-09-09T01:38:30;3.22;;;1.48;;
12966;SDS011;6548;49.996;8.238;2022-09-09T01:40:57;1.23;;;1.13;;
12966;SDS011;6548;49.996;8.238;2022-09-09T01:43:23;2.83;;;2.22;;
12966;SDS011;6548;49.996;8.238;2022-09-09T01:45:52;2.83;;;1.05;;
12966;SDS011;6548;49.996;8.238;2022-09-09T01:48:19;1.70;;;1.20;;
12966;SDS011;6548;49.996;8.238;2022-09-09T01:50:47;2.97;;;1.55;;
12966;SDS011;6548;49.996;8.238;2022-09-09T01:53:15;3.28;;;1.40;;
12966;SDS011;6548;49.996;8.238;2022-09-09T01:55:46;3.28;;;1.20;;
12966;SDS011;6548;49.996;8.238;2022-09-09T02:00:43;3.97;;;2.22;;
12966;SDS011;6548;49.996;8.238;2022-09-09T02:06:05;2.70;;;1.10;;
12966;SDS011;6548;49.996;8.238;2022-09-09T02:08:46;1.70;;;1.33;;
12966;SDS011;6548;49.996;8.238;2022-09-09T02:11:15;2.60;;;1.25;;
12966;SDS011;6548;49.996;8.238;2022-09-09T02:13:46;2.22;;;1.38;;
12966;SDS011;6548;49.996;8.238;2022-09-09T02:19:17;3.85;;;1.33;;
12966;SDS011;6548;49.996;8.238;2022-09-09T02:21:50;10.60;;;1.50;;
12966;SDS011;6548;49.996;8.238;2022-09-09T02:24:19;4.95;;;1.58;;
12966;SDS011;6548;49.996;8.238;2022-09-09T02:26:46;2.63;;;1.55;;
12966;SDS011;6548;49.996;8.238;2022-09-09T02:29:17;3.90;;;1.50;;
12966;SDS011;6548;49.996;8.238;2022-09-09T02:31:52;4.15;;;1.25;;
12966;SDS011;6548;49.996;8.238;2022-09-09T02:34:21;3.40;;;1.20;;
12966;SDS011;6548;49.996;8.238;2022-09-09T02:36:49;4.15;;;1.40;;
12966;SDS011;6548;49.996;8.238;2022-09-09T02:39:18;4.82;;;1.42;;
12966;SDS011;6548;49.996;8.238;2022-09-09T02:41:44;2.08;;;1.42;;
12966;SDS011;6548;49.996;8.238;2022-09-09T02:44:14;3.13;;;1.17;;
12966;SDS011;6548;49.996;8.238;2022-09-09T02:52:26;2.17;;;1.40;;
12966;SDS011;6548;49.996;8.238;2022-09-09T02:55:04;3.53;;;1.65;;
12966;SDS011;6548;49.996;8.238;2022-09-09T02:57:36;3.65;;;1.60;;
12966;SDS011;6548;49.996;8.238;2022-09-09T03:00:03;2.88;;;1.30;;
12966;SDS011;6548;49.996;8.238;2022-09-09T03:02:29;5.53;;;1.38;;
12966;SDS011;6548;49.996;8.238;2022-09-09T03:04:55;5.05;;;1.65;;
12966;SDS011;6548;49.996;8.238;2022-09-09T03:07:21;3.85;;;1.17;;
12966;SDS011;6548;49.996;8.238;2022-09-09T03:09:47;3.33;;;1.15;;
12966;SDS011;6548;49.996;8.238;2022-09-09T03:12:13;4.70;;;1.40;;
12966;SDS011;6548;49.996;8.238;2022-09-09T03:14:38;1.98;;;1.02;;
12966;SDS011;6548;49.996;8.238;2022-09-09T03:17:05;3.05;;;1.70;;
12966;SDS011;6548;49.996;8.238;2022-09-09T03:19:31;2.90;;;1.60;;
12966;SDS011;6548;49.996;8.238;2022-09-09T03:22:00;5.55;;;1.30;;
12966;SDS011;6548;49.996;8.238;2022-09-09T03:24:25;4.38;;;1.73;;
12966;SDS011;6548;49.996;8.238;2022-09-09T03:26:51;2.03;;;1.40;;
12966;SDS011;6548;49.996;8.238;2022-09-09T03:29:16;5.35;;;1.55;;
12966;SDS011;6548;49.996;8.238;2022-09-09T03:31:43;4.80;;;1.88;;
12966;SDS011;6548;49.996;8.238;2022-09-09T03:34:09;3.30;;;1.50;;
12966;SDS011;6548;49.996;8.238;2022-09-09T03:36:35;5.50;;;1.60;;
12966;SDS011;6548;49.996;8.238;2022-09-09T03:39:01;3.70;;;1.50;;
12966;SDS011;6548;49.996;8.238;2022-09-09T03:41:28;4.00;;;1.50;;
12966;SDS011;6548;49.996;8.238;2022-09-09T03:43:54;8.05;;;2.97;;
12966;SDS011;6548;49.996;8.238;2022-09-09T03:46:20;2.53;;;1.10;;
12966;SDS011;6548;49.996;8.238;2022-09-09T03:48:47;2.70;;;1.20;;
12966;SDS011;6548;49.996;8.238;2022-09-09T03:51:13;5.07;;;1.38;;
12966;SDS011;6548;49.996;8.238;2022-09-09T03:53:38;3.55;;;1.63;;
12966;SDS011;6548;49.996;8.238;2022-09-09T03:56:04;5.43;;;1.48;;
12966;SDS011;6548;49.996;8.238;2022-09-09T03:58:32;3.70;;;1.40;;
12966;SDS011;6548;49.996;8.238;2022-09-09T04:03:28;8.52;;;1.80;;
12966;SDS011;6548;49.996;8.238;2022-09-09T04:05:55;2.95;;;1.40;;
12966;SDS011;6548;49.996;8.238;2022-09-09T04:08:21;6.05;;;2.20;;
12966;SDS011;6548;49.996;8.238;2022-09-09T04:10:50;6.35;;;1.42;;
12966;SDS011;6548;49.996;8.238;2022-09-09T04:13:16;2.72;;;1.00;;
12966;SDS011;6548;49.996;8.238;2022-09-09T04:15:43;2.15;;;1.40;;
12966;SDS011;6548;49.996;8.238;2022-09-09T04:18:10;2.20;;;1.15;;
12966;SDS011;6548;49.996;8.238;2022-09-09T04:20:36;4.15;;;2.10;;
12966;SDS011;6548;49.996;8.238;2022-09-09T04:23:02;2.90;;;1.25;;
12966;SDS011;6548;49.996;8.238;2022-09-09T04:25:28;5.55;;;1.13;;
12966;SDS011;6548;49.996;8.238;2022-09-09T04:27:54;1.45;;;1.23;;
12966;SDS011;6548;49.996;8.238;2022-09-09T04:30:21;4.28;;;1.30;;
12966;SDS011;6548;49.996;8.238;2022-09-09T04:32:47;5.32;;;1.70;;
12966;SDS011;6548;49.996;8.238;2022-09-09T04:35:12;6.60;;;3.92;;
12966;SDS011;6548;49.996;8.238;2022-09-09T04:37:38;15.95;;;9.18;;
12966;SDS011;6548;49.996;8.238;2022-09-09T04:40:04;18.15;;;9.18;;
12966;SDS011;6548;49.996;8.238;2022-09-09T04:42:34;10.90;;;5.50;;
12966;SDS011;6548;49.996;8.238;2022-09-09T04:45:03;9.23;;;5.13;;
12966;SDS011;6548;49.996;8.238;2022-09-09T04:47:30;11.38;;;6.25;;
12966;SDS011;6548;49.996;8.238;2022-09-09T04:49:56;6.85;;;4.72;;
12966;SDS011;6548;49.996;8.238;2022-09-09T04:52:21;5.50;;;3.63;;
12966;SDS011;6548;49.996;8.238;2022-09-09T04:54:47;6.38;;;2.05;;
12966;SDS011;6548;49.996;8.238;2022-09-09T04:57:13;9.55;;;1.83;;
12966;SDS011;6548;49.996;8.238;2022-09-09T04:59:38;4.82;;;2.05;;
12966;SDS011;6548;49.996;8.238;2022-09-09T05:02:04;3.65;;;2.35;;
12966;SDS011;6548;49.996;8.238;2022-09-09T05:04:30;6.10;;;1.10;;
12966;SDS011;6548;49.996;8.238;2022-09-09T05:06:56;2.35;;;1.08;;
12966;SDS011;6548;49.996;8.238;2022-09-09T05:09:22;8.57;;;2.38;;
12966;SDS011;6548;49.996;8.238;2022-09-09T05:11:47;4.53;;;2.83;;
12966;SDS011;6548;49.996;8.238;2022-09-09T05:14:14;2.00;;;1.50;;
12966;SDS011;6548;49.996;8.238;2022-09-09T05:16:44;3.47;;;2.03;;
12966;SDS011;6548;49.996;8.238;2022-09-09T05:19:10;5.85;;;1.20;;
12966;SDS011;6548;49.996;8.238;2022-09-09T05:21:36;2.25;;;1.00;;
12966;SDS011;6548;49.996;8.238;2022-09-09T05:24:02;2.38;;;1.00;;
12966;SDS011;6548;49.996;8.238;2022-09-09T05:26:28;3.25;;;1.30;;
12966;SDS011;6548;49.996;8.238;2022-09-09T05:28:57;4.03;;;1.38;;
12966;SDS011;6548;49.996;8.238;2022-09-09T05:31:24;6.15;;;1.25;;
12966;SDS011;6548;49.996;8.238;2022-09-09T05:33:52;7.32;;;1.20;;
12966;SDS011;6548;49.996;8.238;2022-09-09T05:36:19;5.38;;;1.30;;
12966;SDS011;6548;49.996;8.238;2022-09-09T05:38:46;5.63;;;1.65;;
12966;SDS011;6548;49.996;8.238;2022-09-09T05:41:14;4.50;;;1.40;;
12966;SDS011;6548;49.996;8.238;2022-09-09T05:43:42;3.33;;;1.17;;
12966;SDS011;6548;49.996;8.238;2022-09-09T05:46:17;2.60;;;0.98;;
12966;SDS011;6548;49.996;8.238;2022-09-09T05:48:52;3.30;;;1.20;;
12966;SDS011;6548;49.996;8.238;2022-09-09T05:51:37;4.20;;;1.10;;
12966;SDS011;6548;49.996;8.238;2022-09-09T05:54:24;7.57;;;1.23;;
12966;SDS011;6548;49.996;8.238;2022-09-09T05:56:57;5.30;;;1.80;;
12966;SDS011;6548;49.996;8.238;2022-09-09T05:59:29;4.85;;;2.03;;
12966;SDS011;6548;49.996;8.238;2022-09-09T06:01:57;4.75;;;1.45;;
12966;SDS011;6548;49.996;8.238;2022-09-09T06:04:22;6.60;;;1.10;;
12966;SDS011;6548;49.996;8.238;2022-09-09T06:06:49;7.13;;;1.30;;
12966;SDS011;6548;49.996;8.238;2022-09-09T06:09:15;3.75;;;1.25;;
12966;SDS011;6548;49.996;8.238;2022-09-09T06:11:41;7.40;;;1.75;;
12966;SDS011;6548;49.996;8.238;2022-09-09T06:14:07;4.65;;;1.40;;
12966;SDS011;6548;49.996;8.238;2022-09-09T06:16:34;5.97;;;2.55;;
12966;SDS011;6548;49.996;8.238;2022-09-09T06:19:00;3.53;;;1.02;;
12966;SDS011;6548;49.996;8.238;2022-09-09T06:21:32;2.55;;;1.10;;
12966;SDS011;6548;49.996;8.238;2022-09-09T06:23:59;3.78;;;1.45;;
12966;SDS011;6548;49.996;8.238;2022-09-09T06:26:35;5.63;;;1.10;;
12966;SDS011;6548;49.996;8.238;2022-09-09T06:29:03;2.80;;;1.10;;
12966;SDS011;6548;49.996;8.238;2022-09-09T06:31:29;1.95;;;1.23;;
12966;SDS011;6548;49.996;8.238;2022-09-09T06:33:56;3.80;;;1.65;;
12966;SDS011;6548;49.996;8.238;2022-09-09T06:36:33;5.45;;;1.25;;
12966;SDS011;6548;49.996;8.238;2022-09-09T06:39:01;5.55;;;1.30;;
12966;SDS011;6548;49.996;8.238;2022-09-09T06:41:28;4.80;;;1.60;;
12966;SDS011;6548;49.996;8.238;2022-09-09T06:43:55;8.10;;;1.92;;
12966;SDS011;6548;49.996;8.238;2022-09-09T06:46:21;2.33;;;1.05;;
12966;SDS011;6548;49.996;8.238;2022-09-09T06:48:48;2.95;;;1.10;;
12966;SDS011;6548;49.996;8.238;2022-09-09T06:51:15;2.60;;;1.30;;
12966;SDS011;6548;49.996;8.238;2022-09-09T06:53:43;4.03;;;0.90;;
12966;SDS011;6548;49.996;8.238;2022-09-09T06:58:35;3.95;;;1.58;;
12966;SDS011;6548;49.996;8.238;2022-09-09T07:01:07;2.95;;;1.10;;
12966;SDS011;6548;49.996;8.238;2022-09-09T07:03:33;4.00;;;1.42;;
12966;SDS011;6548;49.996;8.238;2022-09-09T07:06:00;6.20;;;1.50;;
12966;SDS011;6548;49.996;8.238;2022-09-09T07:08:26;3.83;;;1.30;;
12966;SDS011;6548;49.996;8.238;2022-09-09T07:10:52;4.38;;;1.30;;
12966;SDS011;6548;49.996;8.238;2022-09-09T07:13:19;4.72;;;1.30;;
12966;SDS011;6548;49.996;8.238;2022-09-09T07:15:52;3.38;;;1.40;;
12966;SDS011;6548;49.996;8.238;2022-09-09T07:18:17;3.28;;;1.42;;
12966;SDS011;6548;49.996;8.238;2022-09-09T07:20:52;4.15;;;1.25;;
12966;SDS011;6548;49.996;8.238;2022-09-09T07:23:19;4.47;;;1.42;;
12966;SDS011;6548;49.996;8.238;2022-09-09T07:25:45;5.03;;;2.08;;
12966;SDS011;6548;49.996;8.238;2022-09-09T07:28:11;6.85;;;3.28;;
12966;SDS011;6548;49.996;8.238;2022-09-09T07:30:36;4.10;;;1.63;;
12966;SDS011;6548;49.996;8.238;2022-09-09T07:33:02;2.60;;;1.40;;
12966;SDS011;6548;49.996;8.238;2022-09-09T07:35:28;3.90;;;1.55;;
12966;SDS011;6548;49.996;8.238;2022-09-09T07:37:54;1.92;;;1.35;;
12966;SDS011;6548;49.996;8.238;2022-09-09T07:40:19;4.20;;;1.60;;
12966;SDS011;6548;49.996;8.238;2022-09-09T07:42:46;3.40;;;1.50;;
12966;SDS011;6548;49.996;8.238;2022-09-09T07:45:12;3.80;;;1.60;;
12966;SDS011;6548;49.996;8.238;2022-09-09T07:47:39;4.00;;;2.42;;
12966;SDS011;6548;49.996;8.238;2022-09-09T07:50:07;3.75;;;1.50;;
12966;SDS011;6548;49.996;8.238;2022-09-09T07:52:34;3.30;;;1.77;;
12966;SDS011;6548;49.996;8.238;2022-09-09T07:55:00;4.80;;;1.98;;
12966;SDS011;6548;49.996;8.238;2022-09-09T07:57:27;4.95;;;2.25;;
12966;SDS011;6548;49.996;8.238;2022-09-09T07:59:55;5.07;;;1.67;;
12966;SDS011;6548;49.996;8.238;2022-09-09T08:02:22;8.02;;;2.28;;
12966;SDS011;6548;49.996;8.238;2022-09-09T08:04:48;5.53;;;1.83;;
12966;SDS011;6548;49.996;8.238;2022-09-09T08:07:14;4.57;;;2.25;;
12966;SDS011;6548;49.996;8.238;2022-09-09T08:09:41;3.38;;;2.25;;
12966;SDS011;6548;49.996;8.238;2022-09-09T08:12:07;6.68;;;2.20;;
12966;SDS011;6548;49.996;8.238;2022-09-09T08:14:33;5.82;;;2.13;;
12966;SDS011;6548;49.996;8.238;2022-09-09T08:16:59;3.22;;;2.20;;
12966;SDS011;6548;49.996;8.238;2022-09-09T08:19:25;4.03;;;2.20;;
12966;SDS011;6548;49.996;8.238;2022-09-09T08:21:51;7.32;;;2.53;;
12966;SDS011;6548;49.996;8.238;2022-09-09T08:24:16;4.30;;;2.35;;
12966;SDS011;6548;49.996;8.238;2022-09-09T08:26:45;4.13;;;2.10;;
12966;SDS011;6548;49.996;8.238;2022-09-09T08:29:15;4.13;;;1.77;;
12966;SDS011;6548;49.996;8.238;2022-09-09T08:31:42;4.60;;;2.67;;
12966;SDS011;6548;49.996;8.238;2022-09-09T08:34:10;4.53;;;1.98;;
12966;SDS011;6548;49.996;8.238;2022-09-09T08:36:37;4.95;;;1.92;;
12966;SDS011;6548;49.996;8.238;2022-09-09T08:55:24;6.03;;;1.80;;
12966;SDS011;6548;49.996;8.238;2022-09-09T08:58:02;3.55;;;2.10;;
12966;SDS011;6548;49.996;8.238;2022-09-09T09:03:51;5.65;;;1.55;;
12966;SDS011;6548;49.996;8.238;2022-09-09T09:06:47;4.28;;;1.48;;
12966;SDS011;6548;49.996;8.238;2022-09-09T09:12:16;4.85;;;1.67;;
12966;SDS011;6548;49.996;8.238;2022-09-09T09:14:51;3.38;;;1.50;;
12966;SDS011;6548;49.996;8.238;2022-09-09T09:17:18;3.97;;;1.40;;
12966;SDS011;6548;49.996;8.238;2022-09-09T09:19:46;2.97;;;1.38;;
12966;SDS011;6548;49.996;8.238;2022-09-09T09:22:20;3.42;;;1.10;;
12966;SDS011;6548;49.996;8.238;2022-09-09T09:32:44;3.10;;;1.25;;
12966;SDS011;6548;49.996;8.238;2022-09-09T09:35:19;3.80;;;1.40;;
12966;SDS011;6548;49.996;8.238;2022-09-09T09:37:45;3.60;;;1.30;;
12966;SDS011;6548;49.996;8.238;2022-09-09T09:40:12;4.43;;;2.03;;
12966;SDS011;6548;49.996;8.238;2022-09-09T09:42:55;4.55;;;1.25;;
12966;SDS011;6548;49.996;8.238;2022-09-09T09:45:32;4.95;;;1.00;;
12966;SDS011;6548;49.996;8.238;2022-09-09T09:48:08;6.82;;;1.30;;
12966;SDS011;6548;49.996;8.238;2022-09-09T09:50:40;2.20;;;1.20;;
12966;SDS011;6548;49.996;8.238;2022-09-09T09:53:21;4.25;;;1.50;;
12966;SDS011;6548;49.996;8.238;2022-09-09T09:55:56;4.75;;;1.58;;
12966;SDS011;6548;49.996;8.238;2022-09-09T09:58:32;2.63;;;1.20;;
12966;SDS011;6548;49.996;8.238;2022-09-09T10:01:33;2.30;;;1.02;;
12966;SDS011;6548;49.996;8.238;2022-09-09T10:06:33;3.67;;;1.02;;
12966;SDS011;6548;49.996;8.238;2022-09-09T10:09:02;2.72;;;1.20;;
12966;SDS011;6548;49.996;8.238;2022-09-09T10:11:50;5.45;;;1.58;;
12966;SDS011;6548;49.996;8.238;2022-09-09T10:14:37;6.05;;;1.77;;
12966;SDS011;6548;49.996;8.238;2022-09-09T10:20:14;6.82;;;1.42;;
12966;SDS011;6548;49.996;8.238;2022-09-09T10:23:06;2.65;;;1.00;;
12966;SDS011;6548;49.996;8.238;2022-09-09T10:29:30;2.70;;;0.90;;
12966;SDS011;6548;49.996;8.238;2022-09-09T10:32:05;2.33;;;0.70;;
12966;SDS011;6548;49.996;8.238;2022-09-09T10:38:02;2.60;;;0.80;;
12966;SDS011;6548;49.996;8.238;2022-09-09T10:45:57;3.08;;;1.73;;
12966;SDS011;6548;49.996;8.238;2022-09-09T10:48:58;4.60;;;0.90;;
12966;SDS011;6548;49.996;8.238;2022-09-09T10:57:11;1.35;;;0.55;;
12966;SDS011;6548;49.996;8.238;2022-09-09T10:59:53;2.22;;;0.80;;
12966;SDS011;6548;49.996;8.238;2022-09-09T11:02:26;3.33;;;1.10;;
12966;SDS011;6548;49.996;8.238;2022-09-09T11:07:39;3.58;;;1.13;;
12966;SDS011;6548;49.996;8.238;2022-09-09T11:10:16;1.88;;;0.90;;
12966;SDS011;6548;49.996;8.238;2022-09-09T11:13:17;2.05;;;0.85;;
12966;SDS011;6548;49.996;8.238;2022-09-09T11:15:50;3.13;;;0.93;;
12966;SDS011;6548;49.996;8.238;2022-09-09T11:18:20;3.33;;;0.77;;
12966;SDS011;6548;49.996;8.238;2022-09-09T11:20:48;2.83;;;0.90;;
12966;SDS011;6548;49.996;8.238;2022-09-09T11:23:24;7.25;;;0.98;;
12966;SDS011;6548;49.996;8.238;2022-09-09T11:25:58;2.60;;;1.00;;
12966;SDS011;6548;49.996;8.238;2022-09-09T11:42:20;6.07;;;0.93;;
12966;SDS011;6548;49.996;8.238;2022-09-09T11:44:48;2.88;;;0.90;;
12966;SDS011;6548;49.996;8.238;2022-09-09T11:47:24;3.13;;;0.68;;
12966;SDS011;6548;49.996;8.238;2022-09-09T11:50:07;5.10;;;0.80;;
12966;SDS011;6548;49.996;8.238;2022-09-09T11:52:45;3.17;;;1.10;;
12966;SDS011;6548;49.996;8.238;2022-09-09T11:55:32;1.63;;;0.80;;
12966;SDS011;6548;49.996;8.238;2022-09-09T12:00:35;6.47;;;0.85;;
12966;SDS011;6548;49.996;8.238;2022-09-09T12:03:29;5.00;;;0.70;;
12966;SDS011;6548;49.996;8.238;2022-09-09T12:06:19;7.47;;;0.98;;
12966;SDS011;6548;49.996;8.238;2022-09-09T12:08:55;4.22;;;0.80;;
12966;SDS011;6548;49.996;8.238;2022-09-09T12:11:31;2.45;;;1.00;;
12966;SDS011;6548;49.996;8.238;2022-09-09T12:13:58;5.97;;;0.80;;
12966;SDS011;6548;49.996;8.238;2022-09-09T12:16:28;4.60;;;0.88;;
12966;SDS011;6548;49.996;8.238;2022-09-09T12:21:48;2.40;;;0.98;;
12966;SDS011;6548;49.996;8.238;2022-09-09T12:24:32;3.45;;;0.80;;
12966;SDS011;6548;49.996;8.238;2022-09-09T12:30:01;4.90;;;1.27;;
12966;SDS011;6548;49.996;8.238;2022-09-09T12:32:39;6.32;;;1.65;;
12966;SDS011;6548;49.996;8.238;2022-09-09T12:35:11;5.82;;;2.35;;
12966;SDS011;6548;49.996;8.238;2022-09-09T12:40:25;2.17;;;0.77;;
12966;SDS011;6548;49.996;8.238;2022-09-09T12:42:52;3.08;;;1.55;;
12966;SDS011;6548;49.996;8.238;2022-09-09T12:45:22;2.92;;;0.60;;
12966;SDS011;6548;49.996;8.238;2022-09-09T12:48:08;2.97;;;0.70;;
12966;SDS011;6548;49.996;8.238;2022-09-09T12:50:58;0.65;;;0.50;;
12966;SDS011;6548;49.996;8.238;2022-09-09T12:53:37;1.60;;;0.77;;
12966;SDS011;6548;49.996;8.238;2022-09-09T12:56:05;2.75;;;0.60;;
12966;SDS011;6548;49.996;8.238;2022-09-09T12:58:33;4.32;;;0.60;;
12966;SDS011;6548;49.996;8.238;2022-09-09T13:01:01;3.05;;;0.60;;
12966;SDS011;6548;49.996;8.238;2022-09-09T13:03:33;2.45;;;0.70;;
12966;SDS011;6548;49.996;8.238;2022-09-09T13:06:17;2.22;;;1.30;;
12966;SDS011;6548;49.996;8.238;2022-09-09T13:08:54;1.40;;;0.40;;
12966;SDS011;6548;49.996;8.238;2022-09-09T13:14:18;2.15;;;0.63;;
12966;SDS011;6548;49.996;8.238;2022-09-09T13:16:57;0.80;;;0.25;;
12966;SDS011;6548;49.996;8.238;2022-09-09T13:19:25;1.02;;;0.47;;
12966;SDS011;6548;49.996;8.238;2022-09-09T13:21:54;2.47;;;0.65;;
12966;SDS011;6548;49.996;8.238;2022-09-09T13:24:33;0.85;;;0.30;;
12966;SDS011;6548;49.996;8.238;2022-09-09T13:27:04;3.53;;;0.45;;
12966;SDS011;6548;49.996;8.238;2022-09-09T13:29:50;3.30;;;0.80;;
12966;SDS011;6548;49.996;8.238;2022-09-09T13:32:20;1.38;;;0.20;;
12966;SDS011;6548;49.996;8.238;2022-09-09T13:34:54;1.17;;;0.30;;
12966;SDS011;6548;49.996;8.238;2022-09-09T13:37:33;2.75;;;0.55;;
12966;SDS011;6548;49.996;8.238;2022-09-09T13:40:04;1.55;;;0.43;;
12966;SDS011;6548;49.996;8.238;2022-09-09T13:42:32;3.22;;;0.75;;
12966;SDS011;6548;49.996;8.238;2022-09-09T13:45:00;2.22;;;0.60;;
12966;SDS011;6548;49.996;8.238;2022-09-09T13:47:31;3.60;;;0.65;;
12966;SDS011;6548;49.996;8.238;2022-09-09T13:50:09;1.05;;;0.45;;
12966;SDS011;6548;49.996;8.238;2022-09-09T13:52:49;2.30;;;0.60;;
12966;SDS011;6548;49.996;8.238;2022-09-09T13:55:17;3.20;;;0.60;;
12966;SDS011;6548;49.996;8.238;2022-09-09T13:58:04;1.13;;;0.50;;
12966;SDS011;6548;49.996;8.238;2022-09-09T14:05:47;2.55;;;0.77;;
12966;SDS011;6548;49.996;8.238;2022-09-09T14:08:21;1.50;;;0.98;;
12966;SDS011;6548;49.996;8.238;2022-09-09T14:10:51;5.97;;;0.80;;
12966;SDS011;6548;49.996;8.238;2022-09-09T14:13:17;0.40;;;0.40;;
12966;SDS011;6548;49.996;8.238;2022-09-09T14:15:43;1.25;;;0.70;;
12966;SDS011;6548;49.996;8.238;2022-09-09T14:18:09;3.78;;;0.88;;
12966;SDS011;6548;49.996;8.238;2022-09-09T14:20:40;1.63;;;0.85;;
12966;SDS011;6548;49.996;8.238;2022-09-09T14:23:07;3.13;;;1.25;;
12966;SDS011;6548;49.996;8.238;2022-09-09T14:25:36;3.70;;;0.82;;
12966;SDS011;6548;49.996;8.238;2022-09-09T14:28:01;1.92;;;0.80;;
12966;SDS011;6548;49.996;8.238;2022-09-09T14:30:27;3.97;;;0.88;;
12966;SDS011;6548;49.996;8.238;2022-09-09T14:32:52;5.28;;;0.85;;
12966;SDS011;6548;49.996;8.238;2022-09-09T14:35:18;2.67;;;1.20;;
12966;SDS011;6548;49.996;8.238;2022-09-09T14:37:43;4.60;;;1.23;;
12966;SDS011;6548;49.996;8.238;2022-09-09T14:40:09;1.45;;;1.00;;
12966;SDS011;6548;49.996;8.238;2022-09-09T14:42:36;2.25;;;0.52;;
12966;SDS011;6548;49.996;8.238;2022-09-09T14:45:02;5.38;;;0.95;;
12966;SDS011;6548;49.996;8.238;2022-09-09T14:47:27;3.40;;;0.80;;
12966;SDS011;6548;49.996;8.238;2022-09-09T14:49:54;3.08;;;0.73;;
12966;SDS011;6548;49.996;8.238;2022-09-09T14:52:19;2.15;;;0.80;;
12966;SDS011;6548;49.996;8.238;2022-09-09T14:54:46;2.92;;;1.13;;
12966;SDS011;6548;49.996;8.238;2022-09-09T14:57:11;1.88;;;0.85;;
12966;SDS011;6548;49.996;8.238;2022-09-09T14:59:37;2.20;;;0.88;;
12966;SDS011;6548;49.996;8.238;2022-09-09T15:02:05;1.52;;;0.60;;
12966;SDS011;6548;49.996;8.238;2022-09-09T15:04:33;3.00;;;0.90;;
12966;SDS011;6548;49.996;8.238;2022-09-09T15:06:58;1.40;;;0.63;;
12966;SDS011;6548;49.996;8.238;2022-09-09T15:09:24;3.50;;;0.60;;
12966;SDS011;6548;49.996;8.238;2022-09-09T15:11:49;3.80;;;1.00;;
12966;SDS011;6548;49.996;8.238;2022-09-09T15:14:15;4.45;;;0.68;;
12966;SDS011;6548;49.996;8.238;2022-09-09T15:16:41;3.28;;;0.77;;
12966;SDS011;6548;49.996;8.238;2022-09-09T15:19:19;3.85;;;0.80;;
12966;SDS011;6548;49.996;8.238;2022-09-09T15:21:44;2.33;;;0.60;;
12966;SDS011;6548;49.996;8.238;2022-09-09T15:24:10;1.52;;;0.60;;
12966;SDS011;6548;49.996;8.238;2022-09-09T15:26:36;3.72;;;0.60;;
12966;SDS011;6548;49.996;8.238;2022-09-09T15:29:03;1.65;;;0.60;;
12966;SDS011;6548;49.996;8.238;2022-09-09T15:31:29;4.93;;;1.13;;
12966;SDS011;6548;49.996;8.238;2022-09-09T15:33:57;2.70;;;0.77;;
12966;SDS011;6548;49.996;8.238;2022-09-09T15:39:07;0.77;;;0.47;;
12966;SDS011;6548;49.996;8.238;2022-09-09T15:41:37;2.10;;;0.82;;
12966;SDS011;6548;49.996;8.238;2022-09-09T15:44:04;1.45;;;0.50;;
12966;SDS011;6548;49.996;8.238;2022-09-09T15:46:34;1.77;;;0.80;;
12966;SDS011;6548;49.996;8.238;2022-09-09T15:51:44;1.45;;;0.52;;
12966;SDS011;6548;49.996;8.238;2022-09-09T15:54:36;1.00;;;0.68;;
12966;SDS011;6548;49.996;8.238;2022-09-09T15:57:06;3.13;;;0.95;;
12966;SDS011;6548;49.996;8.238;2022-09-09T15:59:33;2.20;;;0.52;;
12966;SDS011;6548;49.996;8.238;2022-09-09T16:02:00;1.75;;;0.60;;
12966;SDS011;6548;49.996;8.238;2022-09-09T16:04:26;3.75;;;0.88;;
12966;SDS011;6548;49.996;8.238;2022-09-09T16:06:55;2.75;;;0.65;;
12966;SDS011;6548;49.996;8.238;2022-09-09T16:09:23;1.98;;;0.75;;
12966;SDS011;6548;49.996;8.238;2022-09-09T16:11:49;0.70;;;0.40;;
12966;SDS011;6548;49.996;8.238;2022-09-09T16:14:15;2.88;;;0.60;;
12966;SDS011;6548;49.996;8.238;2022-09-09T16:16:41;1.45;;;0.60;;
12966;SDS011;6548;49.996;8.238;2022-09-09T16:19:08;0.77;;;0.22;;
12966;SDS011;6548;49.996;8.238;2022-09-09T16:21:37;2.13;;;0.50;;
12966;SDS011;6548;49.996;8.238;2022-09-09T16:24:05;2.03;;;0.73;;
12966;SDS011;6548;49.996;8.238;2022-09-09T16:26:33;1.33;;;0.55;;
12966;SDS011;6548;49.996;8.238;2022-09-09T16:29:00;1.55;;;0.52;;
12966;SDS011;6548;49.996;8.238;2022-09-09T16:31:27;0.55;;;0.50;;
12966;SDS011;6548;49.996;8.238;2022-09-09T16:33:53;2.67;;;0.63;;
12966;SDS011;6548;49.996;8.238;2022-09-09T16:36:20;0.80;;;0.40;;
12966;SDS011;6548;49.996;8.238;2022-09-09T16:38:48;0.98;;;0.40;;
12966;SDS011;6548;49.996;8.238;2022-09-09T16:41:16;1.45;;;0.60;;
12966;SDS011;6548;49.996;8.238;2022-09-09T16:43:42;1.35;;;0.85;;
12966;SDS011;6548;49.996;8.238;2022-09-09T16:46:14;2.22;;;0.50;;
12966;SDS011;6548;49.996;8.238;2022-09-09T16:48:42;3.40;;;0.63;;
12966;SDS011;6548;49.996;8.238;2022-09-09T16:51:12;2.08;;;0.45;;
12966;SDS011;6548;49.996;8.238;2022-09-09T16:53:41;2.80;;;0.50;;
12966;SDS011;6548;49.996;8.238;2022-09-09T16:56:11;2.95;;;0.73;;
12966;SDS011;6548;49.996;8.238;2022-09-09T16:58:40;1.85;;;0.60;;
12966;SDS011;6548;49.996;8.238;2022-09-09T17:01:07;0.90;;;0.60;;
12966;SDS011;6548;49.996;8.238;2022-09-09T17:03:33;2.17;;;0.75;;
12966;SDS011;6548;49.996;8.238;2022-09-09T17:05:59;1.95;;;0.80;;
12966;SDS011;6548;49.996;8.238;2022-09-09T17:08:30;3.42;;;0.47;;
12966;SDS011;6548;49.996;8.238;2022-09-09T17:10:56;1.30;;;0.80;;
12966;SDS011;6548;49.996;8.238;2022-09-09T17:13:23;2.53;;;0.68;;
12966;SDS011;6548;49.996;8.238;2022-09-09T17:15:50;3.47;;;0.82;;
12966;SDS011;6548;49.996;8.238;2022-09-09T17:18:15;4.35;;;1.00;;
12966;SDS011;6548;49.996;8.238;2022-09-09T17:20:42;2.92;;;0.70;;
12966;SDS011;6548;49.996;8.238;2022-09-09T17:23:08;3.30;;;1.10;;
12966;SDS011;6548;49.996;8.238;2022-09-09T17:25:36;1.33;;;0.60;;
12966;SDS011;6548;49.996;8.238;2022-09-09T17:28:03;2.33;;;0.90;;
12966;SDS011;6548;49.996;8.238;2022-09-09T17:30:29;1.98;;;0.60;;
12966;SDS011;6548;49.996;8.238;2022-09-09T17:32:58;2.45;;;0.55;;
12966;SDS011;6548;49.996;8.238;2022-09-09T17:35:24;3.72;;;0.93;;